sensor_id;sensor_type;location;lat;lon;timestamp;temperature;humidity
33460;DHT22;19795;53.160;6.612;2023-08-07T03:45:07;13.40;99.90
33460;DHT22;19795;53.160;6.612;2023-08-07T03:47:33;13.40;99.90
33460;DHT22;19795;53.160;6.612;2023-08-07T03:53:15;13.60;99.90
33460;DHT22;19795;53.160;6.612;2023-08-07T03:55:40;13.60;99.90
33460;DHT22;19795;53.160;6.612;2023-08-07T03:58:07;13.80;99.90
33460;DHT22;19795;53.160;6.612;2023-08-07T04:00:33;13.90;99.90
33460;DHT22;19795;53.160;6.612;2023-08-07T04:02:59;14.00;99.90
33460;DHT22;19795;53.160;6.612;2023-08-07T04:05:24;14.10;99.90
33460;DHT22;19795;53.160;6.612;2023-08-07T04:07:50;14.20;99.90
33460;DHT22;19795;53.160;6.612;2023-08-07T04:10:16;14.20;99.90
33460;DHT22;19795;53.160;6.612;2023-08-07T04:12:41;14.20;99.90
33460;DHT22;19795;53.160;6.612;2023-08-07T04:15:07;14.20;99.90
33460;DHT22;19795;53.160;6.612;2023-08-07T04:17:34;14.20;99.90
33460;DHT22;19795;53.160;6.612;2023-08-07T04:19:59;14.20;99.90
33460;DHT22;19795;53.160;6.612;2023-08-07T04:22:25;14.20;99.90
33460;DHT22;19795;53.160;6.612;2023-08-07T04:24:51;14.20;99.90
33460;DHT22;19795;53.160;6.612;2023-08-07T04:27:16;14.20;99.90
33460;DHT22;19795;53.160;6.612;2023-08-07T04:29:42;14.20;99.90
33460;DHT22;19795;53.160;6.612;2023-08-07T04:32:07;14.20;99.90
33460;DHT22;19795;53.160;6.612;2023-08-07T04:34:33;14.10;99.90
33460;DHT22;19795;53.160;6.612;2023-08-07T04:36:59;14.10;99.90
33460;DHT22;19795;53.160;6.612;2023-08-07T04:39:26;14.00;99.90
33460;DHT22;19795;53.160;6.612;2023-08-07T04:41:51;14.00;99.90
33460;DHT22;19795;53.160;6.612;2023-08-07T04:44:17;14.00;99.90
33460;DHT22;19795;53.160;6.612;2023-08-07T04:46:42;14.00;99.90
33460;DHT22;19795;53.160;6.612;2023-08-07T04:49:08;14.10;99.90
33460;DHT22;19795;53.160;6.612;2023-08-07T04:51:34;14.10;99.90
33460;DHT22;19795;53.160;6.612;2023-08-07T04:53:59;14.20;99.90
33460;DHT22;19795;53.160;6.612;2023-08-07T04:56:25;14.20;99.90
33460;DHT22;19795;53.160;6.612;2023-08-07T04:58:51;14.10;99.90
33460;DHT22;19795;53.160;6.612;2023-08-07T05:01:16;14.10;99.90
33460;DHT22;19795;53.160;6.612;2023-08-07T05:03:42;14.10;99.90
33460;DHT22;19795;53.160;6.612;2023-08-07T05:06:07;14.10;99.90
33460;DHT22;19795;53.160;6.612;2023-08-07T05:08:33;14.20;99.90
33460;DHT22;19795;53.160;6.612;2023-08-07T05:10:59;14.20;99.90
33460;DHT22;19795;53.160;6.612;2023-08-07T05:13:24;14.30;99.90
33460;DHT22;19795;53.160;6.612;2023-08-07T05:15:50;14.40;99.90
33460;DHT22;19795;53.160;6.612;2023-08-07T05:18:16;14.50;99.90
33460;DHT22;19795;53.160;6.612;2023-08-07T05:20:42;14.50;99.90
33460;DHT22;19795;53.160;6.612;2023-08-07T05:23:08;14.60;99.90
33460;DHT22;19795;53.160;6.612;2023-08-07T05:25:34;14.60;99.90
33460;DHT22;19795;53.160;6.612;2023-08-07T05:27:59;14.70;99.90
33460;DHT22;19795;53.160;6.612;2023-08-07T05:30:25;14.80;99.90
33460;DHT22;19795;53.160;6.612;2023-08-07T05:32:50;14.80;99.90
33460;DHT22;19795;53.160;6.612;2023-08-07T05:35:16;14.80;99.90
33460;DHT22;19795;53.160;6.612;2023-08-07T05:37:42;14.80;99.90
33460;DHT22;19795;53.160;6.612;2023-08-07T05:40:07;14.80;99.90
33460;DHT22;19795;53.160;6.612;2023-08-07T05:42:33;14.90;99.90
33460;DHT22;19795;53.160;6.612;2023-08-07T05:45:00;15.30;99.90
33460;DHT22;19795;53.160;6.612;2023-08-07T05:47:26;15.60;99.90
33460;DHT22;19795;53.160;6.612;2023-08-07T05:49:51;15.80;90.60
33460;DHT22;19795;53.160;6.612;2023-08-07T05:52:17;15.70;68.20
33460;DHT22;19795;53.160;6.612;2023-08-07T05:54:43;16.00;33.50
33460;DHT22;19795;53.160;6.612;2023-08-07T05:57:09;16.20;9.80
33460;DHT22;19795;53.160;6.612;2023-08-07T05:59:35;16.40;1.00
33460;DHT22;19795;53.160;6.612;2023-08-07T06:02:02;16.10;1.00
33460;DHT22;19795;53.160;6.612;2023-08-07T06:04:28;15.80;1.00
33460;DHT22;19795;53.160;6.612;2023-08-07T06:06:54;15.70;1.00
33460;DHT22;19795;53.160;6.612;2023-08-07T06:09:20;15.70;1.00
33460;DHT22;19795;53.160;6.612;2023-08-07T06:11:47;15.80;6.10
33460;DHT22;19795;53.160;6.612;2023-08-07T06:14:13;15.80;1.00
33460;DHT22;19795;53.160;6.612;2023-08-07T06:16:39;15.80;1.00
33460;DHT22;19795;53.160;6.612;2023-08-07T06:19:04;15.70;1.00
33460;DHT22;19795;53.160;6.612;2023-08-07T06:21:30;15.50;1.00
33460;DHT22;19795;53.160;6.612;2023-08-07T06:23:56;15.50;1.00
33460;DHT22;19795;53.160;6.612;2023-08-07T06:26:22;15.50;10.10
33460;DHT22;19795;53.160;6.612;2023-08-07T06:28:48;15.60;1.00
33460;DHT22;19795;53.160;6.612;2023-08-07T06:31:15;15.60;1.00
33460;DHT22;19795;53.160;6.612;2023-08-07T06:33:41;15.60;1.60
33460;DHT22;19795;53.160;6.612;2023-08-07T06:36:07;15.60;1.00
33460;DHT22;19795;53.160;6.612;2023-08-07T06:38:36;15.80;99.90
33460;DHT22;19795;53.160;6.612;2023-08-07T06:41:02;16.60;99.90
33460;DHT22;19795;53.160;6.612;2023-08-07T06:43:28;17.30;99.90
33460;DHT22;19795;53.160;6.612;2023-08-07T06:45:55;18.10;99.90
33460;DHT22;19795;53.160;6.612;2023-08-07T06:48:21;17.50;99.90
33460;DHT22;19795;53.160;6.612;2023-08-07T06:50:47;16.60;1.00
33460;DHT22;19795;53.160;6.612;2023-08-07T06:53:13;15.90;99.90
33460;DHT22;19795;53.160;6.612;2023-08-07T06:55:41;15.30;1.00
33460;DHT22;19795;53.160;6.612;2023-08-07T06:58:06;15.10;1.00
33460;DHT22;19795;53.160;6.612;2023-08-07T07:00:32;15.10;1.00
33460;DHT22;19795;53.160;6.612;2023-08-07T07:02:59;15.30;1.00
33460;DHT22;19795;53.160;6.612;2023-08-07T07:05:25;15.60;1.00
33460;DHT22;19795;53.160;6.612;2023-08-07T07:07:50;16.00;1.00
33460;DHT22;19795;53.160;6.612;2023-08-07T07:10:16;16.00;99.90
33460;DHT22;19795;53.160;6.612;2023-08-07T07:12:41;15.70;1.00
33460;DHT22;19795;53.160;6.612;2023-08-07T07:15:07;15.40;1.00
33460;DHT22;19795;53.160;6.612;2023-08-07T07:17:34;14.90;38.50
33460;DHT22;19795;53.160;6.612;2023-08-07T07:20:00;14.40;71.20
33460;DHT22;19795;53.160;6.612;2023-08-07T07:22:25;14.30;99.90
33460;DHT22;19795;53.160;6.612;2023-08-07T07:24:51;14.20;99.90
33460;DHT22;19795;53.160;6.612;2023-08-07T07:27:17;14.30;99.90
33460;DHT22;19795;53.160;6.612;2023-08-07T07:29:42;14.50;99.90
33460;DHT22;19795;53.160;6.612;2023-08-07T07:32:08;14.50;99.90
33460;DHT22;19795;53.160;6.612;2023-08-07T07:34:34;14.50;99.90
33460;DHT22;19795;53.160;6.612;2023-08-07T07:36:59;14.60;99.90
33460;DHT22;19795;53.160;6.612;2023-08-07T07:39:25;14.70;99.90
33460;DHT22;19795;53.160;6.612;2023-08-07T07:41:50;14.80;99.90
33460;DHT22;19795;53.160;6.612;2023-08-07T07:44:16;15.00;99.90
33460;DHT22;19795;53.160;6.612;2023-08-07T07:46:42;15.00;61.20
33460;DHT22;19795;53.160;6.612;2023-08-07T07:49:07;15.10;44.00
33460;DHT22;19795;53.160;6.612;2023-08-07T07:51:33;15.50;9.50
33460;DHT22;19795;53.160;6.612;2023-08-07T07:54:00;16.40;1.00
33460;DHT22;19795;53.160;6.612;2023-08-07T07:56:26;17.20;1.00
33460;DHT22;19795;53.160;6.612;2023-08-07T07:58:51;17.80;99.90
33460;DHT22;19795;53.160;6.612;2023-08-07T08:01:17;17.10;99.90
33460;DHT22;19795;53.160;6.612;2023-08-07T08:03:43;16.60;1.00
33460;DHT22;19795;53.160;6.612;2023-08-07T08:06:11;15.70;1.00
33460;DHT22;19795;53.160;6.612;2023-08-07T08:08:37;15.00;21.20
33460;DHT22;19795;53.160;6.612;2023-08-07T08:11:03;14.40;94.70
33460;DHT22;19795;53.160;6.612;2023-08-07T08:13:28;14.20;99.90
33460;DHT22;19795;53.160;6.612;2023-08-07T08:15:54;14.20;99.90
33460;DHT22;19795;53.160;6.612;2023-08-07T08:18:20;14.10;99.90
33460;DHT22;19795;53.160;6.612;2023-08-07T08:20:45;14.10;99.90
33460;DHT22;19795;53.160;6.612;2023-08-07T08:23:11;14.10;89.30
33460;DHT22;19795;53.160;6.612;2023-08-07T08:25:37;14.20;98.30
33460;DHT22;19795;53.160;6.612;2023-08-07T08:28:03;14.30;96.30
33460;DHT22;19795;53.160;6.612;2023-08-07T08:30:28;14.60;99.90
33460;DHT22;19795;53.160;6.612;2023-08-07T08:32:54;15.30;99.90
33460;DHT22;19795;53.160;6.612;2023-08-07T08:35:20;15.90;95.20
33460;DHT22;19795;53.160;6.612;2023-08-07T08:37:46;16.70;44.20
33460;DHT22;19795;53.160;6.612;2023-08-07T08:40:11;17.10;1.00
33460;DHT22;19795;53.160;6.612;2023-08-07T08:42:44;17.10;1.00
33460;DHT22;19795;53.160;6.612;2023-08-07T08:45:12;17.60;99.90
33460;DHT22;19795;53.160;6.612;2023-08-07T08:47:39;18.10;1.00
33460;DHT22;19795;53.160;6.612;2023-08-07T08:50:11;18.30;1.00
33460;DHT22;19795;53.160;6.612;2023-08-07T08:52:41;17.70;99.90
33460;DHT22;19795;53.160;6.612;2023-08-07T08:55:08;17.20;80.40
33460;DHT22;19795;53.160;6.612;2023-08-07T08:57:34;16.90;99.90
33460;DHT22;19795;53.160;6.612;2023-08-07T09:00:01;16.40;1.00
33460;DHT22;19795;53.160;6.612;2023-08-07T09:02:48;16.40;1.00
33460;DHT22;19795;53.160;6.612;2023-08-07T09:05:15;16.90;99.90
33460;DHT22;19795;53.160;6.612;2023-08-07T09:07:41;17.20;99.90
33460;DHT22;19795;53.160;6.612;2023-08-07T09:10:09;17.50;99.70
33460;DHT22;19795;53.160;6.612;2023-08-07T09:12:39;18.00;99.90
33460;DHT22;19795;53.160;6.612;2023-08-07T09:15:06;18.00;1.00
33460;DHT22;19795;53.160;6.612;2023-08-07T09:17:38;18.30;39.50
33460;DHT22;19795;53.160;6.612;2023-08-07T09:20:04;18.50;11.00
33460;DHT22;19795;53.160;6.612;2023-08-07T09:22:32;18.60;99.90
33460;DHT22;19795;53.160;6.612;2023-08-07T09:24:57;18.40;27.70
33460;DHT22;19795;53.160;6.612;2023-08-07T09:27:25;18.40;10.40
33460;DHT22;19795;53.160;6.612;2023-08-07T09:29:51;18.40;1.00
33460;DHT22;19795;53.160;6.612;2023-08-07T09:32:17;18.30;1.00
33460;DHT22;19795;53.160;6.612;2023-08-07T09:34:44;18.20;1.00
33460;DHT22;19795;53.160;6.612;2023-08-07T09:37:09;17.80;1.00
33460;DHT22;19795;53.160;6.612;2023-08-07T09:39:36;18.40;1.00
33460;DHT22;19795;53.160;6.612;2023-08-07T09:42:36;18.20;1.00
33460;DHT22;19795;53.160;6.612;2023-08-07T09:44:54;17.70;1.00
33460;DHT22;19795;53.160;6.612;2023-08-07T09:47:20;18.00;1.00
33460;DHT22;19795;53.160;6.612;2023-08-07T09:49:46;17.40;1.00
33460;DHT22;19795;53.160;6.612;2023-08-07T09:52:13;17.00;1.00
33460;DHT22;19795;53.160;6.612;2023-08-07T09:54:40;17.90;1.00
33460;DHT22;19795;53.160;6.612;2023-08-07T09:57:06;18.30;1.00
33460;DHT22;19795;53.160;6.612;2023-08-07T09:59:33;18.80;1.00
33460;DHT22;19795;53.160;6.612;2023-08-07T10:02:01;18.50;1.00
33460;DHT22;19795;53.160;6.612;2023-08-07T10:04:28;17.80;1.00
33460;DHT22;19795;53.160;6.612;2023-08-07T10:06:53;17.50;1.00
33460;DHT22;19795;53.160;6.612;2023-08-07T10:09:20;17.40;1.00
33460;DHT22;19795;53.160;6.612;2023-08-07T10:11:46;17.20;1.00
33460;DHT22;19795;53.160;6.612;2023-08-07T10:14:16;17.00;1.00
33460;DHT22;19795;53.160;6.612;2023-08-07T10:16:42;16.70;1.00
33460;DHT22;19795;53.160;6.612;2023-08-07T10:19:08;16.60;1.00
33460;DHT22;19795;53.160;6.612;2023-08-07T10:21:36;16.80;1.00
33460;DHT22;19795;53.160;6.612;2023-08-07T10:24:07;17.30;1.00
33460;DHT22;19795;53.160;6.612;2023-08-07T10:26:44;17.40;1.00
33460;DHT22;19795;53.160;6.612;2023-08-07T10:29:15;17.60;1.00
33460;DHT22;19795;53.160;6.612;2023-08-07T10:31:44;17.80;1.00
33460;DHT22;19795;53.160;6.612;2023-08-07T10:34:10;17.70;1.00
33460;DHT22;19795;53.160;6.612;2023-08-07T10:36:37;18.00;1.00
33460;DHT22;19795;53.160;6.612;2023-08-07T10:39:11;18.00;1.00
33460;DHT22;19795;53.160;6.612;2023-08-07T10:41:46;17.50;1.00
33460;DHT22;19795;53.160;6.612;2023-08-07T10:44:23;17.10;1.00
33460;DHT22;19795;53.160;6.612;2023-08-07T10:46:55;17.80;1.00
33460;DHT22;19795;53.160;6.612;2023-08-07T10:49:39;18.30;1.00
33460;DHT22;19795;53.160;6.612;2023-08-07T10:52:15;17.60;1.00
33460;DHT22;19795;53.160;6.612;2023-08-07T10:54:48;17.40;1.00
33460;DHT22;19795;53.160;6.612;2023-08-07T10:57:15;17.10;1.00
33460;DHT22;19795;53.160;6.612;2023-08-07T11:02:30;17.90;1.00
33460;DHT22;19795;53.160;6.612;2023-08-07T11:04:56;18.30;1.00
33460;DHT22;19795;53.160;6.612;2023-08-07T11:07:26;18.40;1.00
33460;DHT22;19795;53.160;6.612;2023-08-07T11:09:52;18.60;1.00
33460;DHT22;19795;53.160;6.612;2023-08-07T11:12:26;18.40;1.00
33460;DHT22;19795;53.160;6.612;2023-08-07T11:14:58;18.10;1.00
33460;DHT22;19795;53.160;6.612;2023-08-07T11:17:28;17.80;1.00
33460;DHT22;19795;53.160;6.612;2023-08-07T11:19:55;17.50;1.00
33460;DHT22;19795;53.160;6.612;2023-08-07T11:22:21;17.80;1.00
33460;DHT22;19795;53.160;6.612;2023-08-07T11:24:47;18.20;1.00
33460;DHT22;19795;53.160;6.612;2023-08-07T11:27:13;17.60;1.00
33460;DHT22;19795;53.160;6.612;2023-08-07T11:29:38;17.40;1.00
33460;DHT22;19795;53.160;6.612;2023-08-07T11:32:05;17.00;1.00
33460;DHT22;19795;53.160;6.612;2023-08-07T11:34:31;17.10;1.00
33460;DHT22;19795;53.160;6.612;2023-08-07T11:36:57;17.30;1.00
33460;DHT22;19795;53.160;6.612;2023-08-07T11:39:23;17.30;1.00
33460;DHT22;19795;53.160;6.612;2023-08-07T11:41:53;16.80;1.00
33460;DHT22;19795;53.160;6.612;2023-08-07T11:44:19;16.30;84.40
33460;DHT22;19795;53.160;6.612;2023-08-07T11:46:45;16.20;51.40
33460;DHT22;19795;53.160;6.612;2023-08-07T11:49:11;16.00;1.00
33460;DHT22;19795;53.160;6.612;2023-08-07T11:51:37;15.80;99.90
33460;DHT22;19795;53.160;6.612;2023-08-07T11:54:03;15.50;99.90
33460;DHT22;19795;53.160;6.612;2023-08-07T11:56:29;15.50;1.00
33460;DHT22;19795;53.160;6.612;2023-08-07T11:58:57;15.30;1.00
33460;DHT22;19795;53.160;6.612;2023-08-07T12:01:24;15.10;99.90
33460;DHT22;19795;53.160;6.612;2023-08-07T12:06:30;14.80;99.90
33460;DHT22;19795;53.160;6.612;2023-08-07T12:08:57;14.80;99.90
33460;DHT22;19795;53.160;6.612;2023-08-07T12:11:23;14.80;1.00
33460;DHT22;19795;53.160;6.612;2023-08-07T12:13:49;15.00;76.70
33460;DHT22;19795;53.160;6.612;2023-08-07T12:16:15;15.00;29.50
33460;DHT22;19795;53.160;6.612;2023-08-07T12:18:49;14.80;99.90
33460;DHT22;19795;53.160;6.612;2023-08-07T12:21:20;14.50;1.00
33460;DHT22;19795;53.160;6.612;2023-08-07T12:23:48;14.40;1.00
33460;DHT22;19795;53.160;6.612;2023-08-07T12:26:14;14.20;1.00
33460;DHT22;19795;53.160;6.612;2023-08-07T12:28:40;14.10;1.00
33460;DHT22;19795;53.160;6.612;2023-08-07T12:31:06;14.40;29.90
33460;DHT22;19795;53.160;6.612;2023-08-07T12:33:32;14.80;34.00
33460;DHT22;19795;53.160;6.612;2023-08-07T12:35:59;15.30;37.30
33460;DHT22;19795;53.160;6.612;2023-08-07T12:38:25;15.70;13.80
33460;DHT22;19795;53.160;6.612;2023-08-07T12:40:52;16.20;1.00
33460;DHT22;19795;53.160;6.612;2023-08-07T12:43:18;17.00;1.00
33460;DHT22;19795;53.160;6.612;2023-08-07T12:45:44;18.00;1.00
33460;DHT22;19795;53.160;6.612;2023-08-07T12:48:10;18.20;99.90
33460;DHT22;19795;53.160;6.612;2023-08-07T12:50:35;18.70;99.90
33460;DHT22;19795;53.160;6.612;2023-08-07T12:53:01;18.90;1.00
33460;DHT22;19795;53.160;6.612;2023-08-07T12:55:28;19.90;99.90
33460;DHT22;19795;53.160;6.612;2023-08-07T12:57:54;20.00;99.90
33460;DHT22;19795;53.160;6.612;2023-08-07T13:00:20;19.30;99.90
33460;DHT22;19795;53.160;6.612;2023-08-07T13:02:47;19.50;1.00
33460;DHT22;19795;53.160;6.612;2023-08-07T13:05:14;18.90;90.70
33460;DHT22;19795;53.160;6.612;2023-08-07T13:07:41;19.30;87.60
33460;DHT22;19795;53.160;6.612;2023-08-07T13:10:08;19.40;1.00
33460;DHT22;19795;53.160;6.612;2023-08-07T13:12:38;19.00;99.90
33460;DHT22;19795;53.160;6.612;2023-08-07T13:15:04;19.70;9.60
33460;DHT22;19795;53.160;6.612;2023-08-07T13:17:31;19.40;33.70
33460;DHT22;19795;53.160;6.612;2023-08-07T13:19:57;18.80;24.40
33460;DHT22;19795;53.160;6.612;2023-08-07T13:22:23;18.80;1.00
33460;DHT22;19795;53.160;6.612;2023-08-07T13:24:49;18.40;1.00
33460;DHT22;19795;53.160;6.612;2023-08-07T13:27:14;17.60;1.00
33460;DHT22;19795;53.160;6.612;2023-08-07T13:29:40;17.20;93.30
33460;DHT22;19795;53.160;6.612;2023-08-07T13:32:06;17.10;99.90
33460;DHT22;19795;53.160;6.612;2023-08-07T13:34:38;17.10;99.90
33460;DHT22;19795;53.160;6.612;2023-08-07T13:37:07;16.80;99.90
33460;DHT22;19795;53.160;6.612;2023-08-07T13:39:33;16.70;99.90
33460;DHT22;19795;53.160;6.612;2023-08-07T13:41:58;16.30;99.90
33460;DHT22;19795;53.160;6.612;2023-08-07T13:44:28;16.00;99.90
33460;DHT22;19795;53.160;6.612;2023-08-07T13:46:54;16.40;99.90
33460;DHT22;19795;53.160;6.612;2023-08-07T13:49:20;17.50;1.00
33460;DHT22;19795;53.160;6.612;2023-08-07T13:51:46;17.60;99.90
33460;DHT22;19795;53.160;6.612;2023-08-07T13:54:12;18.70;99.90
33460;DHT22;19795;53.160;6.612;2023-08-07T13:56:38;18.70;99.90
33460;DHT22;19795;53.160;6.612;2023-08-07T13:59:04;18.10;1.00
33460;DHT22;19795;53.160;6.612;2023-08-07T14:01:29;18.40;99.90
33460;DHT22;19795;53.160;6.612;2023-08-07T14:03:55;18.40;6.40
33460;DHT22;19795;53.160;6.612;2023-08-07T14:06:20;18.30;1.00
33460;DHT22;19795;53.160;6.612;2023-08-07T14:08:46;18.00;1.00
33460;DHT22;19795;53.160;6.612;2023-08-07T14:11:12;18.20;99.90
33460;DHT22;19795;53.160;6.612;2023-08-07T14:13:40;18.90;1.00
33460;DHT22;19795;53.160;6.612;2023-08-07T14:16:06;19.60;1.00
33460;DHT22;19795;53.160;6.612;2023-08-07T14:18:32;19.30;1.00
33460;DHT22;19795;53.160;6.612;2023-08-07T14:20:58;18.80;1.00
33460;DHT22;19795;53.160;6.612;2023-08-07T14:23:23;18.10;1.00
33460;DHT22;19795;53.160;6.612;2023-08-07T14:25:49;17.80;1.00
33460;DHT22;19795;53.160;6.612;2023-08-07T14:28:16;18.10;1.00
33460;DHT22;19795;53.160;6.612;2023-08-07T14:30:42;18.40;1.00
33460;DHT22;19795;53.160;6.612;2023-08-07T14:33:08;18.70;1.00
33460;DHT22;19795;53.160;6.612;2023-08-07T14:35:33;18.80;99.90
33460;DHT22;19795;53.160;6.612;2023-08-07T14:37:59;17.90;99.90
33460;DHT22;19795;53.160;6.612;2023-08-07T14:40:25;18.00;1.00
33460;DHT22;19795;53.160;6.612;2023-08-07T14:42:51;18.00;99.90
33460;DHT22;19795;53.160;6.612;2023-08-07T14:45:17;18.00;1.00
33460;DHT22;19795;53.160;6.612;2023-08-07T14:47:43;18.00;1.00
33460;DHT22;19795;53.160;6.612;2023-08-07T14:50:09;18.10;1.00
33460;DHT22;19795;53.160;6.612;2023-08-07T14:52:35;17.70;99.90
33460;DHT22;19795;53.160;6.612;2023-08-07T14:55:01;17.30;99.90
33460;DHT22;19795;53.160;6.612;2023-08-07T14:57:27;17.40;99.90
33460;DHT22;19795;53.160;6.612;2023-08-07T14:59:52;17.10;1.00
33460;DHT22;19795;53.160;6.612;2023-08-07T15:02:18;17.00;99.90
33460;DHT22;19795;53.160;6.612;2023-08-07T15:04:43;17.10;99.90
33460;DHT22;19795;53.160;6.612;2023-08-07T15:07:09;17.20;1.00
33460;DHT22;19795;53.160;6.612;2023-08-07T15:09:35;17.00;1.00
33460;DHT22;19795;53.160;6.612;2023-08-07T15:12:00;16.80;1.00
33460;DHT22;19795;53.160;6.612;2023-08-07T15:14:26;16.90;1.00
33460;DHT22;19795;53.160;6.612;2023-08-07T15:16:51;16.80;1.00
33460;DHT22;19795;53.160;6.612;2023-08-07T15:19:17;17.00;1.00
33460;DHT22;19795;53.160;6.612;2023-08-07T15:21:43;17.10;1.00
33460;DHT22;19795;53.160;6.612;2023-08-07T15:24:09;17.00;1.00
33460;DHT22;19795;53.160;6.612;2023-08-07T15:26:35;16.90;1.00
33460;DHT22;19795;53.160;6.612;2023-08-07T15:29:01;16.80;1.00
33460;DHT22;19795;53.160;6.612;2023-08-07T15:31:26;17.00;1.00
33460;DHT22;19795;53.160;6.612;2023-08-07T15:33:52;16.90;1.00
33460;DHT22;19795;53.160;6.612;2023-08-07T15:36:18;16.60;1.00
33460;DHT22;19795;53.160;6.612;2023-08-07T15:38:44;16.80;1.00
33460;DHT22;19795;53.160;6.612;2023-08-07T15:41:12;16.80;1.00
33460;DHT22;19795;53.160;6.612;2023-08-07T15:43:38;16.70;1.00
33460;DHT22;19795;53.160;6.612;2023-08-07T15:46:04;16.70;1.00
33460;DHT22;19795;53.160;6.612;2023-08-07T15:48:30;16.60;1.00
33460;DHT22;19795;53.160;6.612;2023-08-07T15:50:56;16.60;1.00
33460;DHT22;19795;53.160;6.612;2023-08-07T15:53:22;16.70;1.00
33460;DHT22;19795;53.160;6.612;2023-08-07T15:55:48;17.00;1.00
33460;DHT22;19795;53.160;6.612;2023-08-07T15:58:14;17.00;1.00
33460;DHT22;19795;53.160;6.612;2023-08-07T16:00:42;16.80;1.00
33460;DHT22;19795;53.160;6.612;2023-08-07T16:03:08;16.90;1.00
33460;DHT22;19795;53.160;6.612;2023-08-07T16:05:38;16.90;1.00
33460;DHT22;19795;53.160;6.612;2023-08-07T16:08:04;17.00;1.00
33460;DHT22;19795;53.160;6.612;2023-08-07T16:10:31;17.10;1.00
33460;DHT22;19795;53.160;6.612;2023-08-07T16:12:58;17.10;1.00
33460;DHT22;19795;53.160;6.612;2023-08-07T16:15:24;17.00;1.00
33460;DHT22;19795;53.160;6.612;2023-08-07T16:17:50;16.90;1.00
33460;DHT22;19795;53.160;6.612;2023-08-07T16:20:16;16.90;1.00
33460;DHT22;19795;53.160;6.612;2023-08-07T16:22:42;17.00;1.00
33460;DHT22;19795;53.160;6.612;2023-08-07T16:25:08;16.70;1.00
33460;DHT22;19795;53.160;6.612;2023-08-07T16:27:34;16.70;1.00
33460;DHT22;19795;53.160;6.612;2023-08-07T16:30:02;16.80;1.00
33460;DHT22;19795;53.160;6.612;2023-08-07T16:32:33;16.90;1.00
33460;DHT22;19795;53.160;6.612;2023-08-07T16:34:59;16.90;1.00
33460;DHT22;19795;53.160;6.612;2023-08-07T16:37:26;16.90;1.00
33460;DHT22;19795;53.160;6.612;2023-08-07T16:39:52;16.80;1.00
33460;DHT22;19795;53.160;6.612;2023-08-07T16:42:17;16.70;1.00
33460;DHT22;19795;53.160;6.612;2023-08-07T16:44:43;16.90;1.00
33460;DHT22;19795;53.160;6.612;2023-08-07T16:47:08;17.00;1.00
33460;DHT22;19795;53.160;6.612;2023-08-07T16:49:34;17.20;1.00
33460;DHT22;19795;53.160;6.612;2023-08-07T16:52:00;16.90;1.00
33460;DHT22;19795;53.160;6.612;2023-08-07T16:54:26;16.70;1.00
33460;DHT22;19795;53.160;6.612;2023-08-07T16:56:53;16.50;1.00
33460;DHT22;19795;53.160;6.612;2023-08-07T16:59:19;16.40;1.00
33460;DHT22;19795;53.160;6.612;2023-08-07T17:01:44;16.50;1.00
33460;DHT22;19795;53.160;6.612;2023-08-07T17:04:10;16.50;1.00
33460;DHT22;19795;53.160;6.612;2023-08-07T17:06:35;16.50;1.00
33460;DHT22;19795;53.160;6.612;2023-08-07T17:09:01;16.50;1.00
33460;DHT22;19795;53.160;6.612;2023-08-07T17:11:27;16.40;1.00
33460;DHT22;19795;53.160;6.612;2023-08-07T17:13:55;16.50;1.00
33460;DHT22;19795;53.160;6.612;2023-08-07T17:16:20;16.60;1.00
33460;DHT22;19795;53.160;6.612;2023-08-07T17:18:46;16.50;1.00
33460;DHT22;19795;53.160;6.612;2023-08-07T17:21:12;16.50;1.00
33460;DHT22;19795;53.160;6.612;2023-08-07T17:23:38;16.60;1.00
33460;DHT22;19795;53.160;6.612;2023-08-07T17:26:03;16.50;1.00
33460;DHT22;19795;53.160;6.612;2023-08-07T17:28:29;17.10;1.00
33460;DHT22;19795;53.160;6.612;2023-08-07T17:30:56;18.40;99.90
33460;DHT22;19795;53.160;6.612;2023-08-07T17:33:22;18.70;99.90
33460;DHT22;19795;53.160;6.612;2023-08-07T17:35:48;18.50;99.90
33460;DHT22;19795;53.160;6.612;2023-08-07T17:38:13;18.20;99.90
33460;DHT22;19795;53.160;6.612;2023-08-07T17:40:39;18.50;99.90
33460;DHT22;19795;53.160;6.612;2023-08-07T17:43:05;18.80;99.90
33460;DHT22;19795;53.160;6.612;2023-08-07T17:45:31;19.10;99.90
33460;DHT22;19795;53.160;6.612;2023-08-07T17:47:56;18.30;99.90
33460;DHT22;19795;53.160;6.612;2023-08-07T17:50:22;18.00;99.90
33460;DHT22;19795;53.160;6.612;2023-08-07T17:52:48;17.80;99.90
33460;DHT22;19795;53.160;6.612;2023-08-07T17:55:13;17.30;99.90
33460;DHT22;19795;53.160;6.612;2023-08-07T17:57:40;16.60;99.90
33460;DHT22;19795;53.160;6.612;2023-08-07T18:00:06;16.40;1.00
33460;DHT22;19795;53.160;6.612;2023-08-07T18:02:36;16.10;1.00
33460;DHT22;19795;53.160;6.612;2023-08-07T18:05:03;16.00;1.00
33460;DHT22;19795;53.160;6.612;2023-08-07T18:07:28;16.50;1.00
33460;DHT22;19795;53.160;6.612;2023-08-07T18:09:56;16.50;1.00
33460;DHT22;19795;53.160;6.612;2023-08-07T18:12:21;16.50;1.00
33460;DHT22;19795;53.160;6.612;2023-08-07T18:14:47;16.90;1.00
33460;DHT22;19795;53.160;6.612;2023-08-07T18:17:13;16.40;1.00
33460;DHT22;19795;53.160;6.612;2023-08-07T18:19:39;15.80;1.00
33460;DHT22;19795;53.160;6.612;2023-08-07T18:22:05;15.50;65.80
33460;DHT22;19795;53.160;6.612;2023-08-07T18:24:30;15.20;99.90
33460;DHT22;19795;53.160;6.612;2023-08-07T18:26:56;15.00;99.90
33460;DHT22;19795;53.160;6.612;2023-08-07T18:29:22;14.90;99.90
33460;DHT22;19795;53.160;6.612;2023-08-07T18:31:48;14.90;99.90
33460;DHT22;19795;53.160;6.612;2023-08-07T18:34:14;14.80;99.90
33460;DHT22;19795;53.160;6.612;2023-08-07T18:36:40;14.70;99.90
33460;DHT22;19795;53.160;6.612;2023-08-07T18:39:06;14.60;1.00
33460;DHT22;19795;53.160;6.612;2023-08-07T18:41:32;14.50;99.90
33460;DHT22;19795;53.160;6.612;2023-08-07T18:43:58;14.30;99.90
33460;DHT22;19795;53.160;6.612;2023-08-07T18:46:23;14.20;10.50
33460;DHT22;19795;53.160;6.612;2023-08-07T18:48:49;14.00;48.10
33460;DHT22;19795;53.160;6.612;2023-08-07T18:51:16;13.90;99.90
33460;DHT22;19795;53.160;6.612;2023-08-07T18:53:42;13.80;1.00
33460;DHT22;19795;53.160;6.612;2023-08-07T18:56:08;13.70;99.90
33460;DHT22;19795;53.160;6.612;2023-08-07T18:58:33;13.60;1.00
33460;DHT22;19795;53.160;6.612;2023-08-07T19:00:59;13.40;1.00
33460;DHT22;19795;53.160;6.612;2023-08-07T19:03:25;13.30;90.80
33460;DHT22;19795;53.160;6.612;2023-08-07T19:05:51;13.30;99.90
33460;DHT22;19795;53.160;6.612;2023-08-07T19:08:16;13.20;1.00
33460;DHT22;19795;53.160;6.612;2023-08-07T19:10:44;13.20;1.00
33460;DHT22;19795;53.160;6.612;2023-08-07T19:13:11;13.10;99.90
33460;DHT22;19795;53.160;6.612;2023-08-07T19:15:37;13.10;1.00
33460;DHT22;19795;53.160;6.612;2023-08-07T19:18:02;13.10;99.90
33460;DHT22;19795;53.160;6.612;2023-08-07T19:20:31;13.00;1.00
33460;DHT22;19795;53.160;6.612;2023-08-07T19:22:57;12.90;99.90
33460;DHT22;19795;53.160;6.612;2023-08-07T19:25:23;12.90;99.80
33460;DHT22;19795;53.160;6.612;2023-08-07T19:27:49;12.80;99.90